George S. — A8TJ9 — position and weather

sailwx.info

Track history (hours):
 
Tides and Currents Weather Stations Pressure Air Temp Water Temp Dewpoint Dewpoint Depression Visibility Wind Speed Wind Dir Waves Ship Positions

George S.

Last reported at 2015-Jul-30 01:33 UTC. Time now 2015-Jul-30 02:04 UTC.
Position N 37°23' W 009°43'.

Length 274 m; draft 9.3 m.

Type: Tanker. MMSI: 636014372.

Date/timePositionNaut miles runAvg speedWind from/ knotsBaromVisibWave heightAir tempDewpointWater temp
2015-Jul-30 01:33N 37°23' W 009°43'1414.2
2015-Jul-30 00:33N 37°37' W 009°47'1414.3
2015-Jul-29 23:33N 37°51' W 009°51'1414.3
2015-Jul-29 22:33N 38°05' W 009°54'1414.0
2015-Jul-29 21:34N 38°19' W 009°58'1413.9
2015-Jul-29 20:33N 38°32' W 010°02'1414.0
2015-Jul-29 19:34N 38°46' W 010°04'1413.9
2015-Jul-29 18:33N 39°00' W 010°06'1414.3
2015-Jul-29 17:33N 39°15' W 010°07'1414.1
2015-Jul-29 16:33N 39°29' W 010°06'  
Track history (hours):
 
Tides and Currents Weather Stations Pressure Air Temp Water Temp Dewpoint Dewpoint Depression Visibility Wind Speed Wind Dir Waves Ship Positions

George S.

Last reported at 2015-Jul-30 01:33 UTC. Time now 2015-Jul-30 02:04 UTC.
Position N 37°23' W 009°43'.

Length 274 m; draft 9.3 m.

Type: Tanker. MMSI: 636014372.

Date/timePositionNaut miles runAvg speedWind from/ knotsBaromVisibWave heightAir tempDewpointWater temp
2015-Jul-30 01:33N 37°23' W 009°43'1414.2
2015-Jul-30 00:33N 37°37' W 009°47'1414.3
2015-Jul-29 23:33N 37°51' W 009°51'1414.3
2015-Jul-29 22:33N 38°05' W 009°54'1414.0
2015-Jul-29 21:34N 38°19' W 009°58'1413.9
2015-Jul-29 20:33N 38°32' W 010°02'1414.0
2015-Jul-29 19:34N 38°46' W 010°04'1413.9
2015-Jul-29 18:33N 39°00' W 010°06'1414.3
2015-Jul-29 17:33N 39°15' W 010°07'1414.1
2015-Jul-29 16:33N 39°29' W 010°06'  

Dump ship's entire track history